createdAt,value
2022-11-17T00:04:48.503Z,36.20
2022-11-17T00:09:54.326Z,42.55
2022-11-17T00:20:23.773Z,41.15
2022-11-17T00:25:29.569Z,26.83
2022-11-17T00:30:59.887Z,48.38
2022-11-17T00:36:05.827Z,39.08
2022-11-17T00:46:16.237Z,37.03
2022-11-17T00:51:22.162Z,34.53
2022-11-17T00:56:30.887Z,44.13
2022-11-17T01:01:37.135Z,38.85
2022-11-17T01:06:44.657Z,40.50
2022-11-17T01:11:56.630Z,41.30
2022-11-17T01:17:02.561Z,37.33
2022-11-17T01:27:16.953Z,33.50
2022-11-17T01:32:23.751Z,33.92
2022-11-17T01:37:29.758Z,24.92
2022-11-17T01:42:35.323Z,32.78
2022-11-17T01:47:53.505Z,31.08
2022-11-17T01:53:01.357Z,59.30
2022-11-17T01:58:15.670Z,25.17
2022-11-17T02:03:21.700Z,19.20
2022-11-17T02:08:29.316Z,21.88
2022-11-17T02:13:37.444Z,28.83
2022-11-17T02:18:44.453Z,24.48
2022-11-17T02:24:15.801Z,30.92
2022-11-17T02:29:21.601Z,27.20
2022-11-17T02:39:43.343Z,26.00
2022-11-17T02:45:00.100Z,21.83
2022-11-17T02:50:08.742Z,20.83
2022-11-17T02:55:14.882Z,21.58
2022-11-17T03:00:21.543Z,23.70
2022-11-17T03:05:31.446Z,18.67
2022-11-17T03:10:47.626Z,15.35
2022-11-17T03:16:25.732Z,22.27
2022-11-17T03:21:33.280Z,15.93
2022-11-17T03:26:41.951Z,16.80
2022-11-17T03:31:50.174Z,18.35
2022-11-17T03:37:00.941Z,22.65
2022-11-17T03:42:12.758Z,20.50
2022-11-17T03:47:20.221Z,20.25
2022-11-17T03:52:29.519Z,22.75
2022-11-17T03:57:35.039Z,18.15
2022-11-17T04:02:57.465Z,16.10
2022-11-17T04:08:03.591Z,27.88
2022-11-17T04:13:29.351Z,21.75
2022-11-17T04:18:35.193Z,14.70
2022-11-17T04:23:40.729Z,20.23
2022-11-17T04:28:50.787Z,20.60
2022-11-17T04:33:58.104Z,11.50
2022-11-17T04:39:04.393Z,17.60
2022-11-17T04:44:11.049Z,20.75
2022-11-17T04:49:17.645Z,11.30
2022-11-17T04:54:27.999Z,18.08
2022-11-17T04:59:33.889Z,13.27
2022-11-17T05:10:03.073Z,12.70
2022-11-17T05:15:12.211Z,13.13
2022-11-17T05:20:19.880Z,11.75
2022-11-17T05:25:25.501Z,9.05
2022-11-17T05:35:39.635Z,8.90
2022-11-17T05:40:45.368Z,9.82
2022-11-17T05:50:56.587Z,11.57
2022-11-17T05:56:20.781Z,8.63
2022-11-17T06:01:26.548Z,9.75
2022-11-17T06:06:33.270Z,9.68
2022-11-17T06:11:39.210Z,10.55
2022-11-17T06:16:47.006Z,8.10
2022-11-17T06:22:11.280Z,10.82
2022-11-17T06:27:18.800Z,5.63
2022-11-17T06:32:24.455Z,9.68
2022-11-17T06:42:53.830Z,7.47
2022-11-17T06:47:59.739Z,13.25
2022-11-17T06:58:13.191Z,8.43
2022-11-17T07:03:18.984Z,16.70
2022-11-17T07:08:24.928Z,13.68
2022-11-17T07:13:30.819Z,14.32
2022-11-17T07:18:37.636Z,15.07
2022-11-17T07:23:44.276Z,12.00
2022-11-17T07:28:50.209Z,16.88
2022-11-17T07:33:58.919Z,14.93
2022-11-17T07:39:05.438Z,10.35
2022-11-17T07:44:12.121Z,16.95
2022-11-17T07:49:17.874Z,13.82
2022-11-17T07:54:23.458Z,14.13
2022-11-17T08:04:34.261Z,13.07
2022-11-17T08:09:40.212Z,16.02
2022-11-17T08:14:46.545Z,6.50
2022-11-17T08:19:52.529Z,13.23
2022-11-17T08:24:58.705Z,9.45
2022-11-17T08:30:04.469Z,8.95
2022-11-17T08:35:10.583Z,13.85
2022-11-17T08:40:17.211Z,13.60
2022-11-17T08:45:26.610Z,11.00
2022-11-17T08:50:32.122Z,20.67
2022-11-17T08:55:41.470Z,15.10
2022-11-17T09:00:48.776Z,14.25
2022-11-17T09:05:55.383Z,14.52
2022-11-17T09:11:07.052Z,18.50
2022-11-17T09:16:13.759Z,16.80
2022-11-17T09:21:23.037Z,18.10
2022-11-17T09:26:29.084Z,20.70
2022-11-17T09:31:35.124Z,19.63
2022-11-17T09:36:41.060Z,26.70
2022-11-17T09:41:48.224Z,19.48
2022-11-17T09:47:02.906Z,17.88
2022-11-17T09:52:28.759Z,10.75
2022-11-17T09:57:46.581Z,17.98
2022-11-17T10:02:53.562Z,21.65
2022-11-17T10:08:05.165Z,17.45
2022-11-17T10:13:18.003Z,27.85
2022-11-17T10:18:23.967Z,31.75
2022-11-17T10:23:34.049Z,23.45
2022-11-17T10:28:49.952Z,34.75
2022-11-17T10:33:55.698Z,25.55
2022-11-17T10:39:02.464Z,36.70
2022-11-17T10:44:22.744Z,95.93
2022-11-17T10:49:30.677Z,27.20
2022-11-17T10:54:36.503Z,56.58
2022-11-17T10:59:57.018Z,36.65
2022-11-17T11:05:14.500Z,23.90
2022-11-17T11:10:21.816Z,17.48
2022-11-17T11:15:28.415Z,26.23
2022-11-17T11:20:49.047Z,47.83
2022-11-17T11:25:57.284Z,26.55
2022-11-17T11:31:16.118Z,47.15
2022-11-17T11:36:27.845Z,38.75
2022-11-17T11:41:46.901Z,37.75
2022-11-17T11:46:53.862Z,32.27
2022-11-17T11:52:00.088Z,38.08
2022-11-17T11:57:09.483Z,33.28
2022-11-17T12:02:16.148Z,31.60
2022-11-17T12:07:44.749Z,26.52
2022-11-17T12:12:51.079Z,36.05
2022-11-17T12:18:05.351Z,37.38
2022-11-17T12:23:29.630Z,36.45
2022-11-17T12:28:42.473Z,38.83
2022-11-17T12:33:57.785Z,27.30
2022-11-17T12:39:04.791Z,40.53
2022-11-17T12:44:28.730Z,17.70
2022-11-17T12:49:37.471Z,27.50
2022-11-17T12:54:57.643Z,38.78
2022-11-17T13:00:03.983Z,32.00
2022-11-17T13:05:16.330Z,40.63
2022-11-17T13:10:30.948Z,28.45
2022-11-17T13:15:36.606Z,28.52
2022-11-17T13:25:47.362Z,42.90
2022-11-17T13:30:56.432Z,37.53
2022-11-17T13:36:11.408Z,35.70
2022-11-17T13:41:24.212Z,51.22
2022-11-17T13:46:30.599Z,51.42
2022-11-17T13:51:40.477Z,45.60
2022-11-17T13:56:49.210Z,54.20
2022-11-17T14:02:15.359Z,46.72
2022-11-17T14:07:35.120Z,43.80
2022-11-17T14:12:47.555Z,37.45
2022-11-17T14:17:54.593Z,47.72
2022-11-17T14:23:17.068Z,34.45
2022-11-17T14:28:27.798Z,47.25
2022-11-17T14:33:33.696Z,50.05
2022-11-17T14:43:44.840Z,47.55
2022-11-17T14:48:50.780Z,51.15
2022-11-17T14:53:56.488Z,46.13
2022-11-17T14:59:03.801Z,50.30
2022-11-17T15:04:34.509Z,53.35
2022-11-17T15:09:39.593Z,45.92
2022-11-17T15:14:45.374Z,48.17
2022-11-17T15:19:54.190Z,46.83
2022-11-17T15:25:05.979Z,43.13
2022-11-17T15:30:14.905Z,34.13
2022-11-17T15:41:33.199Z,39.30
2022-11-17T15:46:47.097Z,36.92
2022-11-17T15:51:53.835Z,44.72
2022-11-17T15:57:06.046Z,35.75
2022-11-17T16:02:12.368Z,42.15
2022-11-17T16:07:26.894Z,41.20
2022-11-17T16:12:32.767Z,32.33
2022-11-17T16:17:38.935Z,38.58
2022-11-17T16:22:44.507Z,39.40
2022-11-17T16:27:53.424Z,35.25
2022-11-17T16:32:59.766Z,34.42
2022-11-17T16:38:05.911Z,37.13
2022-11-17T16:43:13.826Z,39.33
2022-11-17T16:48:19.804Z,43.13
2022-11-17T16:53:25.747Z,41.20
2022-11-17T16:58:31.776Z,45.17
2022-11-17T17:03:38.600Z,49.92
2022-11-17T17:08:44.166Z,50.42
2022-11-17T17:13:50.745Z,52.05
2022-11-17T17:19:03.682Z,57.03
2022-11-17T17:24:10.039Z,56.92
2022-11-17T17:29:17.240Z,39.88
2022-11-17T17:34:23.217Z,44.45
2022-11-17T17:44:34.142Z,44.30
2022-11-17T17:49:39.811Z,44.50
2022-11-17T17:54:45.626Z,45.03
2022-11-17T17:59:51.544Z,52.00
2022-11-17T18:04:57.111Z,50.60
2022-11-17T18:10:02.669Z,48.90
2022-11-17T18:15:08.541Z,48.70
2022-11-17T18:20:14.711Z,46.92
2022-11-17T18:25:20.514Z,40.70
2022-11-17T18:30:26.070Z,41.08
2022-11-17T18:35:31.636Z,40.80
2022-11-17T18:40:37.881Z,35.97
2022-11-17T18:45:43.675Z,31.20
2022-11-17T18:51:17.730Z,29.20
2022-11-17T18:56:16.267Z,25.33
2022-11-17T19:01:23.066Z,23.55
2022-11-17T19:06:29.065Z,22.50
2022-11-17T19:11:36.085Z,28.90
2022-11-17T19:16:44.891Z,27.55
2022-11-17T19:21:51.222Z,28.77
2022-11-17T19:26:57.150Z,27.40
2022-11-17T19:32:03.121Z,22.70
2022-11-17T19:37:09.244Z,22.83
2022-11-17T19:42:14.937Z,22.48
2022-11-17T19:47:20.844Z,21.35
2022-11-17T19:57:31.481Z,20.88
2022-11-17T20:07:42.675Z,18.00
2022-11-17T20:12:48.518Z,22.30
2022-11-17T20:22:59.637Z,22.20
2022-11-17T20:33:10.894Z,22.02
2022-11-17T20:38:16.492Z,21.92
2022-11-17T20:43:22.036Z,17.63
2022-11-17T20:48:29.039Z,22.52
2022-11-17T20:53:35.635Z,23.27
2022-11-17T20:58:41.980Z,22.83
2022-11-17T21:03:47.711Z,22.73
2022-11-17T21:08:53.784Z,22.75
2022-11-17T21:13:59.714Z,24.80
2022-11-17T21:19:05.930Z,20.92
2022-11-17T21:24:11.866Z,24.48
2022-11-17T21:29:18.193Z,23.13
2022-11-17T21:34:24.798Z,25.35
2022-11-17T21:39:30.581Z,29.25
2022-11-17T21:44:36.778Z,31.23
2022-11-17T21:54:47.864Z,30.77
2022-11-17T21:59:53.560Z,31.47
2022-11-17T22:04:59.414Z,39.10
2022-11-17T22:15:11.946Z,36.70
2022-11-17T22:20:17.861Z,36.90
2022-11-17T22:30:48.521Z,34.80
2022-11-17T22:41:03.420Z,52.60
2022-11-17T22:46:13.284Z,36.88
2022-11-17T22:51:39.085Z,33.08
2022-11-17T22:56:45.018Z,33.63
2022-11-17T23:01:50.750Z,33.58
2022-11-17T23:06:56.366Z,40.08
2022-11-17T23:17:07.606Z,29.05
2022-11-17T23:22:13.705Z,38.35
2022-11-17T23:27:19.811Z,41.30
2022-11-17T23:32:26.258Z,39.30
2022-11-17T23:37:31.952Z,29.50
2022-11-17T23:42:42.690Z,31.40
2022-11-17T23:47:48.723Z,34.65
2022-11-17T23:52:54.257Z,36.22
2022-11-17T23:58:00.088Z,27.90
